Time;durP1;ratioP1;P1;durP2;ratioP2;P2;SDS_P1;SDS_P2;PMS_P1;PMS_P2;Temp;Humidity;BMP_temperature;BMP_pressure;BME280_temperature;BME280_humidity;BME280_pressure;Samples;Min_cycle;Max_cycle;Signal;HPM_P1;HPM_P2
2020/12/04 00:02:07;;;;;;;14.15;12.02;;;3.80;93.90;;;;;;5056477;28;20035;-73
2020/12/04 00:04:33;;;;;;;14.65;11.85;;;3.80;94.00;;;;;;5038732;28;20048;-73
2020/12/04 00:07:02;;;;;;;15.10;12.57;;;3.80;94.00;;;;;;5056394;28;20021;-73
2020/12/04 00:09:28;;;;;;;18.77;13.13;;;3.80;94.00;;;;;;5057037;28;20036;-73
2020/12/04 00:11:54;;;;;;;44.33;14.00;;;3.80;94.30;;;;;;5056398;28;20325;-73
2020/12/04 00:14:19;;;;;;;16.65;12.55;;;3.70;94.60;;;;;;5056345;28;20098;-73
2020/12/04 00:16:45;;;;;;;14.45;12.45;;;3.60;94.70;;;;;;5056506;28;20048;-73
2020/12/04 00:19:11;;;;;;;17.63;13.07;;;3.60;94.70;;;;;;5057293;28;20024;-73
2020/12/04 00:21:37;;;;;;;14.60;12.32;;;3.60;94.70;;;;;;5060306;28;20040;-73
2020/12/04 00:24:02;;;;;;;15.68;13.13;;;3.60;94.30;;;;;;5060230;28;20017;-73
2020/12/04 00:26:28;;;;;;;16.15;13.73;;;3.70;94.30;;;;;;5059166;28;20111;-73
2020/12/04 00:28:54;;;;;;;13.40;11.65;;;3.70;94.30;;;;;;5060407;28;20025;-73
2020/12/04 00:31:19;;;;;;;16.33;13.30;;;3.70;94.40;;;;;;5060475;28;20040;-73
2020/12/04 00:33:45;;;;;;;13.27;11.65;;;3.70;94.40;;;;;;5060062;28;20032;-73
2020/12/04 00:36:11;;;;;;;13.00;11.60;;;3.80;94.50;;;;;;5042386;28;20070;-73
2020/12/04 00:38:37;;;;;;;13.98;11.38;;;3.70;94.20;;;;;;5059921;28;20059;-73
2020/12/04 00:41:03;;;;;;;13.20;10.95;;;3.70;94.40;;;;;;5060199;28;20024;-73
2020/12/04 00:43:29;;;;;;;13.20;11.80;;;3.70;94.60;;;;;;5059851;28;20025;-73
2020/12/04 00:45:55;;;;;;;15.45;12.73;;;3.80;94.50;;;;;;5060238;28;20448;-73
2020/12/04 00:48:21;;;;;;;16.05;13.05;;;3.80;94.20;;;;;;5059872;28;20105;-73
2020/12/04 00:50:46;;;;;;;13.13;11.40;;;3.80;94.00;;;;;;5059836;28;20029;-73
2020/12/04 00:53:12;;;;;;;16.80;13.10;;;3.80;94.20;;;;;;5059777;28;20408;-74
2020/12/04 00:55:38;;;;;;;21.08;13.75;;;3.80;94.30;;;;;;5059785;28;20037;-73
2020/12/04 00:58:04;;;;;;;17.33;12.60;;;3.80;94.00;;;;;;5059678;28;20025;-73
2020/12/04 01:00:30;;;;;;;18.50;11.80;;;3.80;94.20;;;;;;5060132;28;20313;-73
2020/12/04 01:02:56;;;;;;;17.70;13.02;;;3.80;94.30;;;;;;5059536;28;20036;-74
2020/12/04 01:05:21;;;;;;;14.82;12.25;;;3.80;94.30;;;;;;5059525;28;20114;-73
2020/12/04 01:07:47;;;;;;;18.83;14.48;;;3.90;94.20;;;;;;5059488;28;20029;-73
2020/12/04 01:10:13;;;;;;;17.35;14.38;;;3.80;94.00;;;;;;5059686;28;20032;-73
2020/12/04 01:12:42;;;;;;;22.95;14.10;;;3.70;94.20;;;;;;5059401;28;20032;-73
2020/12/04 01:15:08;;;;;;;19.02;15.00;;;3.70;94.40;;;;;;5059733;28;20036;-73
2020/12/04 01:17:34;;;;;;;18.10;14.75;;;3.60;95.00;;;;;;5041471;28;20052;-73
2020/12/04 01:20:00;;;;;;;21.58;15.40;;;3.60;95.20;;;;;;5041535;28;20033;-73
2020/12/04 01:22:26;;;;;;;32.85;15.85;;;3.70;95.20;;;;;;5059351;28;20021;-73
2020/12/04 01:24:51;;;;;;;22.17;16.40;;;3.70;95.00;;;;;;5058038;28;20025;-73
2020/12/04 01:27:17;;;;;;;19.23;15.63;;;3.70;94.80;;;;;;5059151;28;20025;-73
2020/12/04 01:29:44;;;;;;;20.67;15.88;;;3.70;94.50;;;;;;5058982;28;20421;-73
2020/12/04 01:32:10;;;;;;;29.55;16.60;;;3.70;94.40;;;;;;5059004;28;20033;-73
2020/12/04 01:34:35;;;;;;;29.30;16.27;;;3.70;94.40;;;;;;5057882;28;20025;-73
2020/12/04 01:37:01;;;;;;;20.55;16.42;;;3.70;94.30;;;;;;5059264;28;20028;-73
2020/12/04 01:39:26;;;;;;;19.05;15.15;;;3.70;94.10;;;;;;5059437;28;20032;-73
2020/12/04 01:41:52;;;;;;;19.00;13.77;;;3.80;93.70;;;;;;5058817;28;20063;-73
2020/12/04 01:44:18;;;;;;;19.27;14.38;;;3.70;93.70;;;;;;5041058;28;20032;-73
2020/12/04 01:46:43;;;;;;;22.30;14.82;;;3.70;93.40;;;;;;5059259;28;20065;-73
2020/12/04 01:49:09;;;;;;;20.85;16.00;;;3.70;93.20;;;;;;5059152;28;20033;-73
2020/12/04 01:51:36;;;;;;;25.88;19.85;;;3.60;93.40;;;;;;5058880;28;20025;-73
2020/12/04 01:54:03;;;;;;;27.42;19.48;;;3.60;93.90;;;;;;5058634;28;20086;-73
2020/12/04 01:56:37;;;;;;;32.95;21.00;;;3.60;94.00;;;;;;5058582;28;20024;-73
2020/12/04 01:59:06;;;;;;;39.70;21.42;;;3.60;94.20;;;;;;5058609;28;20102;-73
2020/12/04 02:01:38;;;;;;;24.73;18.63;;;3.50;94.70;;;;;;5058615;28;20017;-73
2020/12/04 02:04:07;;;;;;;23.02;17.63;;;3.60;94.90;;;;;;5058590;28;20025;-73
2020/12/04 02:06:37;;;;;;;23.88;17.58;;;3.70;94.50;;;;;;5058393;28;20018;-73
2020/12/04 02:09:10;;;;;;;17.90;14.52;;;3.60;94.20;;;;;;5058701;28;20417;-73
2020/12/04 02:11:37;;;;;;;18.48;14.77;;;3.60;94.00;;;;;;5058360;28;20032;-73
2020/12/04 02:14:04;;;;;;;17.77;14.68;;;3.60;93.90;;;;;;5058166;28;20409;-73
2020/12/04 02:16:30;;;;;;;18.45;14.63;;;3.50;93.70;;;;;;5058599;28;20302;-73
2020/12/04 02:18:56;;;;;;;22.88;16.40;;;3.50;93.80;;;;;;5038136;28;20083;-73
2020/12/04 02:21:22;;;;;;;20.38;15.60;;;3.50;94.30;;;;;;5038187;28;20022;-73
2020/12/04 02:23:51;;;;;;;21.00;16.67;;;3.50;94.50;;;;;;5038037;28;20025;-73
2020/12/04 02:26:19;;;;;;;15.10;11.77;;;3.50;94.60;;;;;;5038028;28;20030;-73
2020/12/04 02:28:45;;;;;;;14.82;12.32;;;3.50;94.10;;;;;;5038014;28;20026;-73
2020/12/04 02:31:12;;;;;;;13.05;11.40;;;3.50;93.20;;;;;;5037915;28;20029;-73
2020/12/04 02:33:38;;;;;;;17.75;14.98;;;3.50;93.20;;;;;;5037880;28;20033;-73
2020/12/04 02:36:05;;;;;;;19.70;13.10;;;3.50;93.20;;;;;;5037896;28;20026;-73
2020/12/04 02:38:31;;;;;;;14.27;11.23;;;3.50;93.90;;;;;;5037682;28;20025;-73
2020/12/04 02:40:57;;;;;;;14.20;11.93;;;3.40;94.20;;;;;;5037809;28;20109;-73
2020/12/04 02:43:23;;;;;;;14.88;11.07;;;3.40;94.00;;;;;;5037033;28;20018;-73
2020/12/04 02:45:50;;;;;;;16.33;12.02;;;3.40;93.30;;;;;;5037887;28;20334;-73
2020/12/04 02:48:16;;;;;;;15.32;11.75;;;3.40;93.60;;;;;;5037649;28;20364;-73
2020/12/04 02:50:42;;;;;;;12.25;10.90;;;3.40;93.90;;;;;;5037603;28;20406;-73
2020/12/04 02:53:08;;;;;;;13.63;11.25;;;3.40;93.80;;;;;;5037558;28;20071;-73
2020/12/04 02:55:34;;;;;;;12.27;10.30;;;3.40;93.80;;;;;;5037449;28;20463;-73
2020/12/04 02:58:00;;;;;;;13.25;10.38;;;3.40;93.30;;;;;;5019915;28;20032;-73
2020/12/04 03:00:26;;;;;;;14.52;10.57;;;3.40;92.80;;;;;;5037971;28;20302;-73
2020/12/04 03:02:51;;;;;;;19.17;11.80;;;3.40;92.70;;;;;;5037384;28;20112;-73
2020/12/04 03:05:17;;;;;;;17.42;10.88;;;3.40;92.80;;;;;;5037326;28;20418;-73
2020/12/04 03:07:43;;;;;;;14.13;10.45;;;3.40;92.30;;;;;;5037291;28;20022;-73
2020/12/04 03:10:09;;;;;;;13.95;11.52;;;3.40;92.10;;;;;;5037753;28;20036;-73
2020/12/04 03:12:39;;;;;;;13.23;10.07;;;3.30;92.00;;;;;;5037226;28;20409;-73
2020/12/04 03:15:06;;;;;;;13.00;10.55;;;3.20;91.90;;;;;;5037164;28;20033;-73
2020/12/04 03:17:32;;;;;;;12.32;10.27;;;3.20;91.70;;;;;;5045398;28;20359;-73
2020/12/04 03:19:58;;;;;;;15.80;9.35;;;3.20;91.80;;;;;;5057148;28;20049;-73
2020/12/04 03:22:24;;;;;;;11.82;9.77;;;3.20;91.30;;;;;;5056956;28;20032;-73
2020/12/04 03:24:50;;;;;;;20.70;14.85;;;3.20;90.70;;;;;;5056866;28;20051;-73
2020/12/04 03:27:16;;;;;;;18.25;12.73;;;3.20;91.60;;;;;;5057044;28;20021;-73
2020/12/04 03:29:42;;;;;;;20.50;14.65;;;3.30;92.90;;;;;;5056910;28;20021;-73
2020/12/04 03:32:08;;;;;;;20.13;12.70;;;3.40;93.50;;;;;;5056814;28;20033;-73
2020/12/04 03:34:34;;;;;;;20.38;12.30;;;3.50;93.40;;;;;;5056797;28;20366;-73
2020/12/04 03:37:00;;;;;;;21.65;12.85;;;3.50;93.30;;;;;;5056742;28;20440;-73
2020/12/04 03:39:26;;;;;;;21.35;13.60;;;3.50;93.40;;;;;;5057035;28;20025;-73
2020/12/04 03:41:51;;;;;;;19.58;13.30;;;3.50;93.50;;;;;;5056703;28;20032;-73
2020/12/04 03:44:17;;;;;;;25.45;14.23;;;3.40;93.90;;;;;;5056633;28;20013;-73
2020/12/04 03:46:47;;;;;;;38.10;16.38;;;3.40;93.90;;;;;;5057016;28;20309;-73
2020/12/04 03:49:13;;;;;;;109.47;17.40;;;3.50;94.10;;;;;;5039272;28;20302;-73
2020/12/04 03:51:45;;;;;;;128.55;17.20;;;3.50;94.40;;;;;;5056570;28;20110;-73
2020/12/04 03:54:12;;;;;;;107.93;17.55;;;3.40;94.70;;;;;;5056000;28;20021;-73
2020/12/04 03:56:38;;;;;;;26.88;15.35;;;3.40;94.70;;;;;;5056559;28;20056;-73
2020/12/04 03:59:04;;;;;;;18.95;13.05;;;3.50;94.40;;;;;;5056480;28;20479;-73
2020/12/04 04:01:31;;;;;;;20.42;12.65;;;3.40;93.10;;;;;;5056511;28;20051;-73
2020/12/04 04:03:57;;;;;;;19.60;12.23;;;3.40;92.80;;;;;;5056438;28;20021;-73
2020/12/04 04:06:23;;;;;;;16.65;12.63;;;3.30;92.10;;;;;;5056461;28;20047;-73
2020/12/04 04:08:49;;;;;;;16.40;12.68;;;3.40;92.10;;;;;;5038770;28;20212;-73
2020/12/04 04:11:15;;;;;;;18.63;13.52;;;3.40;92.20;;;;;;5056395;28;20033;-73
2020/12/04 04:13:41;;;;;;;25.48;16.98;;;3.30;92.60;;;;;;5056353;28;20437;-73
2020/12/04 04:16:06;;;;;;;24.98;17.70;;;3.30;92.90;;;;;;5056628;28;20102;-73
2020/12/04 04:18:33;;;;;;;21.90;15.68;;;3.30;93.80;;;;;;5056117;28;20045;-73
2020/12/04 04:21:01;;;;;;;23.90;16.92;;;3.40;94.30;;;;;;5056307;28;20037;-73
2020/12/04 04:23:27;;;;;;;22.40;15.65;;;3.40;94.20;;;;;;5056246;28;20104;-74
2020/12/04 04:25:53;;;;;;;18.88;14.32;;;3.40;94.30;;;;;;5056284;28;20100;-73
2020/12/04 04:28:19;;;;;;;19.45;13.95;;;3.40;94.40;;;;;;5056213;28;20039;-73
2020/12/04 04:30:45;;;;;;;18.13;13.80;;;3.40;94.40;;;;;;5056829;28;20100;-73
2020/12/04 04:33:11;;;;;;;17.52;13.23;;;3.40;94.10;;;;;;5056204;28;20029;-73
2020/12/04 04:35:37;;;;;;;18.05;13.25;;;3.50;93.70;;;;;;5055048;28;20356;-73
2020/12/04 04:38:03;;;;;;;15.55;11.68;;;3.50;93.50;;;;;;5056138;28;20056;-73
2020/12/04 04:40:30;;;;;;;18.27;12.55;;;3.50;93.10;;;;;;5056287;28;20094;-73
2020/12/04 04:43:10;;;;;;;20.10;14.05;;;3.50;92.80;;;;;;5056166;28;20032;-73
2020/12/04 04:45:43;;;;;;;17.90;12.57;;;3.50;92.70;;;;;;5056182;28;20033;-73
2020/12/04 04:48:22;;;;;;;12.00;9.75;;;3.50;92.90;;;;;;5056063;28;20025;-73
2020/12/04 04:50:52;;;;;;;13.68;10.52;;;3.40;93.10;;;;;;5056091;28;20062;-73
2020/12/04 04:53:19;;;;;;;12.52;10.13;;;3.40;92.80;;;;;;5056021;28;20029;-73
2020/12/04 04:55:45;;;;;;;12.88;9.98;;;3.30;93.40;;;;;;5055942;28;20025;-73
2020/12/04 04:58:11;;;;;;;12.02;9.35;;;3.30;93.30;;;;;;5056024;28;20155;-73
2020/12/04 05:00:37;;;;;;;13.63;10.48;;;3.30;93.50;;;;;;5055981;28;20032;-73
2020/12/04 05:03:04;;;;;;;13.05;9.95;;;3.40;93.60;;;;;;5055933;28;20025;-73
2020/12/04 05:06:02;;;;;;;17.08;11.40;;;3.40;92.60;;;;;;5057076;28;20017;-73
2020/12/04 05:08:28;;;;;;;13.70;11.13;;;3.40;91.80;;;;;;5036758;28;20440;-73
2020/12/04 05:11:07;;;;;;;16.25;12.77;;;3.40;92.80;;;;;;5059485;28;20028;-73
2020/12/04 05:13:33;;;;;;;16.98;12.35;;;3.30;93.30;;;;;;5059380;28;20110;-73
2020/12/04 05:15:58;;;;;;;186.00;16.55;;;3.30;93.80;;;;;;5059285;28;20429;-73
2020/12/04 05:18:24;;;;;;;42.90;15.30;;;3.30;94.00;;;;;;5059179;28;20341;-73
2020/12/04 05:20:52;;;;;;;158.25;15.55;;;3.40;94.00;;;;;;5059224;28;20079;-73
2020/12/04 05:23:19;;;;;;;18.50;13.98;;;3.40;93.90;;;;;;5059240;28;20364;-73
2020/12/04 05:25:48;;;;;;;17.42;13.30;;;3.30;93.70;;;;;;5059124;28;20078;-73
2020/12/04 05:28:22;;;;;;;94.05;16.40;;;3.30;93.50;;;;;;5041453;28;20029;-73
2020/12/04 05:30:50;;;;;;;27.33;14.55;;;3.30;93.90;;;;;;5059301;28;20032;-73
2020/12/04 05:33:17;;;;;;;46.20;14.40;;;3.30;94.20;;;;;;5059063;28;20317;-73
2020/12/04 05:35:49;;;;;;;170.23;18.48;;;3.20;94.20;;;;;;5058937;28;20104;-73
2020/12/04 05:38:17;;;;;;;41.42;15.90;;;3.20;94.20;;;;;;5058954;28;20402;-73
2020/12/04 05:41:02;;;;;;;46.75;15.55;;;3.30;94.10;;;;;;5058999;28;20028;-73
2020/12/04 05:43:30;;;;;;;29.10;14.70;;;3.30;94.10;;;;;;5058792;28;20472;-73
2020/12/04 05:46:19;;;;;;;31.75;16.48;;;3.30;93.80;;;;;;5059011;28;20025;-73
2020/12/04 05:48:56;;;;;;;63.67;16.30;;;3.40;93.90;;;;;;5058781;28;20098;-73
2020/12/04 05:51:23;;;;;;;;;;;3.30;93.90;;;;;;5059701;28;20024;-73
2020/12/04 05:53:51;;;;;;;17.27;13.10;;;3.30;93.60;;;;;;5058614;28;19905;-73
2020/12/04 05:56:17;;;;;;;19.52;14.45;;;3.30;93.50;;;;;;5058622;28;20014;-73
2020/12/04 05:58:46;;;;;;;19.15;15.32;;;3.30;93.80;;;;;;5058512;28;20055;-73
2020/12/04 06:01:13;;;;;;;20.23;15.80;;;3.20;94.20;;;;;;5059010;28;20067;-73
2020/12/04 06:03:39;;;;;;;24.23;15.88;;;3.20;94.30;;;;;;5058425;28;20048;-73
2020/12/04 06:06:08;;;;;;;18.00;14.88;;;3.20;94.30;;;;;;5058443;28;20104;-73
2020/12/04 06:08:41;;;;;;;18.48;14.48;;;3.20;93.50;;;;;;5058387;28;20028;-73
2020/12/04 06:11:07;;;;;;;15.25;12.85;;;3.20;92.50;;;;;;5058485;28;20096;-73
2020/12/04 06:13:36;;;;;;;18.52;13.85;;;3.20;92.70;;;;;;5058396;28;20013;-73
2020/12/04 06:16:15;;;;;;;20.05;14.98;;;3.20;92.80;;;;;;5058380;28;20377;-73
2020/12/04 06:18:40;;;;;;;19.50;15.73;;;3.20;93.30;;;;;;5057495;28;20047;-73
2020/12/04 06:21:06;;;;;;;23.23;17.05;;;3.20;93.80;;;;;;5058129;28;20025;-73
2020/12/04 06:23:33;;;;;;;23.48;17.55;;;3.10;94.40;;;;;;5058014;28;20021;-73
2020/12/04 06:26:05;;;;;;;21.73;16.35;;;3.10;94.70;;;;;;5058140;28;20017;-74
2020/12/04 06:28:40;;;;;;;33.35;23.15;;;3.20;94.40;;;;;;5058115;28;20066;-73
2020/12/04 06:31:12;;;;;;;31.85;20.90;;;3.30;93.80;;;;;;5056896;28;20326;-73
2020/12/04 06:33:49;;;;;;;25.67;17.73;;;3.30;94.10;;;;;;5057904;28;20025;-73
2020/12/04 06:36:30;;;;;;;24.08;17.90;;;3.30;93.60;;;;;;5057899;28;20374;-73
2020/12/04 06:38:56;;;;;;;20.73;15.80;;;3.30;93.90;;;;;;5057786;28;20029;-73
2020/12/04 06:41:29;;;;;;;20.38;15.55;;;3.30;93.80;;;;;;5057762;28;20139;-74
2020/12/04 06:43:58;;;;;;;23.23;16.52;;;3.30;93.50;;;;;;5057836;28;20021;-73
2020/12/04 06:46:35;;;;;;;31.13;18.17;;;3.20;93.40;;;;;;5057586;28;20485;-73
2020/12/04 06:52:14;;;;;;;11.95;9.65;;;3.20;94.40;;;;;;5057575;28;20332;-73
2020/12/04 06:54:47;;;;;;;5.82;4.72;;;3.30;94.60;;;;;;5057743;28;20044;-73
2020/12/04 06:57:16;;;;;;;5.18;4.68;;;3.40;94.20;;;;;;5057508;28;20078;-73
2020/12/04 06:59:42;;;;;;;4.47;4.00;;;3.50;94.20;;;;;;5039714;28;20024;-73
2020/12/04 07:02:19;;;;;;;23.13;15.43;;;3.50;94.30;;;;;;5057359;28;20044;-73
2020/12/04 07:04:50;;;;;;;12.10;10.02;;;3.50;94.30;;;;;;5057415;28;20021;-73
2020/12/04 07:07:18;;;;;;;7.97;6.43;;;3.50;93.50;;;;;;5057467;28;20021;-73
2020/12/04 07:10:10;;;;;;;10.57;8.40;;;3.50;94.10;;;;;;5057559;28;20024;-73
2020/12/04 07:12:37;;;;;;;10.13;8.40;;;3.50;93.90;;;;;;5053588;28;20433;-73
2020/12/04 07:15:03;;;;;;;6.90;5.50;;;3.50;93.30;;;;;;5057087;28;20124;-73
2020/12/04 07:17:30;;;;;;;4.05;3.65;;;3.50;94.00;;;;;;5056935;28;20131;-73
2020/12/04 07:19:58;;;;;;;3.65;3.20;;;3.50;94.40;;;;;;5057139;28;20413;-73
2020/12/04 07:22:25;;;;;;;4.00;3.10;;;3.50;94.70;;;;;;5057011;28;20021;-73
2020/12/04 07:24:52;;;;;;;3.72;3.33;;;3.50;94.20;;;;;;5057038;28;20029;-73
2020/12/04 07:27:29;;;;;;;3.45;3.15;;;3.40;94.60;;;;;;5056878;28;20018;-73
2020/12/04 07:29:54;;;;;;;3.70;3.30;;;3.40;94.40;;;;;;5056840;28;20099;-73
2020/12/04 07:32:21;;;;;;;3.58;3.20;;;3.40;93.90;;;;;;5056849;28;20096;-73
2020/12/04 07:34:47;;;;;;;3.13;2.58;;;3.40;93.30;;;;;;5056809;28;20035;-73
2020/12/04 07:37:13;;;;;;;2.92;2.63;;;3.40;93.00;;;;;;5056807;28;20029;-73
2020/12/04 07:39:40;;;;;;;3.83;2.90;;;3.40;93.10;;;;;;5057006;28;20029;-73
2020/12/04 07:42:08;;;;;;;2.60;2.20;;;3.40;93.10;;;;;;5056721;28;20032;-73
2020/12/04 07:44:37;;;;;;;3.78;2.72;;;3.40;93.40;;;;;;5056747;28;20102;-73
2020/12/04 07:47:20;;;;;;;2.72;2.50;;;3.50;92.80;;;;;;5057084;28;20029;-73
2020/12/04 07:49:52;;;;;;;2.60;2.40;;;3.60;92.10;;;;;;5056988;28;20041;-73
2020/12/04 07:52:25;;;;;;;3.22;2.70;;;3.60;92.90;;;;;;5056789;28;20074;-73
2020/12/04 07:55:06;;;;;;;2.85;2.17;;;3.70;93.20;;;;;;5056509;28;20029;-73
2020/12/04 07:58:01;;;;;;;2.85;2.40;;;3.80;90.60;;;;;;5056758;28;20409;-73
2020/12/04 08:00:34;;;;;;;2.53;2.33;;;4.00;91.90;;;;;;5057059;28;20063;-73
2020/12/04 08:03:14;;;;;;;2.42;2.15;;;4.20;91.70;;;;;;5056497;28;20103;-74
2020/12/04 08:05:40;;;;;;;2.50;1.90;;;4.30;90.80;;;;;;5056540;28;20104;-73
2020/12/04 08:08:07;;;;;;;1.92;1.52;;;4.40;90.60;;;;;;5056399;28;20445;-73
2020/12/04 08:10:33;;;;;;;2.58;1.90;;;4.50;87.90;;;;;;5056497;28;20095;-74
2020/12/04 08:12:59;;;;;;;2.47;2.13;;;4.60;88.40;;;;;;5056446;28;20558;-73
2020/12/04 08:15:26;;;;;;;2.72;1.83;;;4.70;89.70;;;;;;5056463;28;20032;-73
2020/12/04 08:18:01;;;;;;;2.90;2.35;;;4.70;89.50;;;;;;5056192;28;20049;-73
2020/12/04 08:20:27;;;;;;;2.00;1.60;;;4.80;90.40;;;;;;5056375;28;20111;-73
2020/12/04 08:22:53;;;;;;;1.95;1.70;;;4.80;87.10;;;;;;5038642;28;20112;-73
2020/12/04 08:25:24;;;;;;;2.58;2.08;;;4.90;89.40;;;;;;5056267;28;20055;-73
2020/12/04 08:27:50;;;;;;;3.25;2.50;;;4.90;88.90;;;;;;5056434;28;20025;-73
2020/12/04 08:30:21;;;;;;;2.80;2.22;;;5.00;89.90;;;;;;5056275;28;20054;-73
2020/12/04 08:32:48;;;;;;;2.88;2.58;;;5.00;89.50;;;;;;5056272;28;20094;-73
2020/12/04 08:35:18;;;;;;;2.42;2.13;;;5.00;89.10;;;;;;5056148;28;20063;-73
2020/12/04 08:37:46;;;;;;;3.08;2.78;;;5.00;90.00;;;;;;5038765;28;20324;-73
2020/12/04 08:40:29;;;;;;;5.70;4.80;;;5.10;90.30;;;;;;5057213;28;20057;-74
2020/12/04 08:43:17;;;;;;;12.90;9.77;;;5.10;89.70;;;;;;5060022;28;20453;-73
2020/12/04 08:45:47;;;;;;;8.23;7.07;;;5.20;90.60;;;;;;5060132;28;20423;-73
2020/12/04 08:48:16;;;;;;;6.10;5.22;;;5.20;89.70;;;;;;5059920;28;20098;-73
2020/12/04 08:50:48;;;;;;;5.82;5.00;;;5.20;89.10;;;;;;5059868;28;20108;-73
2020/12/04 08:53:18;;;;;;;4.95;4.45;;;5.20;87.60;;;;;;5059832;28;20057;-73
2020/12/04 08:55:48;;;;;;;7.20;5.95;;;5.20;85.00;;;;;;5059718;28;20048;-74
2020/12/04 08:58:15;;;;;;;7.80;6.57;;;5.20;87.20;;;;;;5059784;28;20020;-73
2020/12/04 09:00:45;;;;;;;6.30;5.35;;;5.30;86.50;;;;;;5059920;28;20021;-73
2020/12/04 09:03:12;;;;;;;7.35;6.07;;;5.30;84.90;;;;;;5059643;28;20021;-74
2020/12/04 09:05:37;;;;;;;8.32;6.82;;;5.30;85.90;;;;;;5059536;28;20104;-73
2020/12/04 09:08:04;;;;;;;6.28;4.72;;;5.10;86.40;;;;;;5059571;28;20051;-73
2020/12/04 09:10:30;;;;;;;5.60;4.22;;;5.00;84.20;;;;;;5060080;28;20425;-73
2020/12/04 09:12:56;;;;;;;6.53;4.80;;;4.80;84.40;;;;;;5058418;28;20051;-73
2020/12/04 09:15:22;;;;;;;9.40;8.40;;;4.70;87.00;;;;;;5041651;28;20036;-73
2020/12/04 09:17:48;;;;;;;10.45;8.82;;;4.70;88.60;;;;;;5059190;28;20347;-73
2020/12/04 09:20:15;;;;;;;7.93;6.97;;;4.60;89.50;;;;;;5059213;28;20037;-73
2020/12/04 09:22:41;;;;;;;5.60;4.70;;;4.60;90.10;;;;;;5059242;28;20017;-73
2020/12/04 09:25:10;;;;;;;8.88;7.95;;;4.50;89.40;;;;;;5059167;28;20325;-73
2020/12/04 09:27:36;;;;;;;13.90;10.57;;;4.50;90.60;;;;;;5059185;28;20100;-74
2020/12/04 09:30:04;;;;;;;13.98;10.43;;;4.50;90.60;;;;;;5059189;28;20032;-73
2020/12/04 09:32:30;;;;;;;12.30;10.20;;;4.50;90.80;;;;;;5059045;28;20028;-73
2020/12/04 09:34:56;;;;;;;11.90;10.07;;;4.50;90.20;;;;;;5059150;28;20060;-73
2020/12/04 09:37:27;;;;;;;15.95;12.80;;;4.50;91.70;;;;;;5059021;28;20428;-73
2020/12/04 09:40:06;;;;;;;13.68;11.82;;;4.50;92.40;;;;;;5059040;28;20078;-73
2020/12/04 09:42:32;;;;;;;15.80;12.98;;;4.50;93.00;;;;;;5059177;28;20100;-73
2020/12/04 09:44:58;;;;;;;16.23;13.20;;;4.50;92.40;;;;;;5058775;28;20474;-73
2020/12/04 09:47:25;;;;;;;14.48;12.30;;;4.50;91.90;;;;;;5041363;28;20334;-73
2020/12/04 09:49:52;;;;;;;15.65;13.05;;;4.50;91.80;;;;;;5059002;28;20075;-73
2020/12/04 09:52:19;;;;;;;15.73;12.60;;;4.60;92.80;;;;;;5058696;28;20064;-73
2020/12/04 09:54:46;;;;;;;13.93;12.32;;;4.60;92.50;;;;;;5058544;28;20112;-73
2020/12/04 09:57:13;;;;;;;16.23;12.52;;;4.60;91.90;;;;;;5058633;28;20032;-73
2020/12/04 09:59:39;;;;;;;18.05;13.98;;;4.70;91.40;;;;;;5058651;28;20114;-73
2020/12/04 10:02:06;;;;;;;16.55;13.82;;;4.70;92.00;;;;;;5058501;28;20031;-73
2020/12/04 10:04:32;;;;;;;19.33;15.18;;;4.70;91.50;;;;;;5058391;28;20048;-73
2020/12/04 10:06:59;;;;;;;17.00;13.18;;;4.60;91.80;;;;;;5062392;28;20025;-73
2020/12/04 10:09:26;;;;;;;17.90;13.38;;;4.60;91.70;;;;;;5066808;28;20384;-73
2020/12/04 10:11:52;;;;;;;13.73;11.48;;;4.60;92.30;;;;;;5040669;28;20033;-73
2020/12/04 10:14:19;;;;;;;15.77;11.05;;;4.60;92.50;;;;;;5058242;28;20414;-73
2020/12/04 10:16:46;;;;;;;14.73;12.15;;;4.60;90.50;;;;;;5056615;28;20029;-74
2020/12/04 10:19:14;;;;;;;16.55;11.82;;;4.60;90.90;;;;;;5038462;28;20094;-73
2020/12/04 10:21:40;;;;;;;11.82;9.45;;;4.60;89.80;;;;;;5038503;28;20322;-73
2020/12/04 10:24:07;;;;;;;13.95;10.40;;;4.70;88.00;;;;;;5038120;28;20021;-74
2020/12/04 10:26:50;;;;;;;14.13;11.75;;;4.80;90.30;;;;;;5038122;28;20049;-73
2020/12/04 10:29:17;;;;;;;12.75;9.70;;;5.00;92.10;;;;;;5038583;28;20313;-73
2020/12/04 10:31:43;;;;;;;12.70;9.50;;;5.00;91.40;;;;;;5038020;28;20018;-73
2020/12/04 10:34:10;;;;;;;11.98;9.88;;;5.10;89.30;;;;;;5038218;28;20029;-73
2020/12/04 10:36:37;;;;;;;14.80;9.98;;;5.10;90.90;;;;;;5039838;28;20038;-73
2020/12/04 10:39:05;;;;;;;14.10;9.77;;;5.10;88.20;;;;;;5044911;28;20034;-73
2020/12/04 10:41:32;;;;;;;9.32;7.40;;;5.10;87.90;;;;;;5020312;28;20040;-73
2020/12/04 10:43:59;;;;;;;11.10;8.48;;;5.10;88.90;;;;;;5037765;28;20025;-73
2020/12/04 10:46:24;;;;;;;10.35;8.77;;;5.10;90.60;;;;;;5038134;28;20052;-73
2020/12/04 10:48:50;;;;;;;13.30;11.23;;;5.10;90.80;;;;;;5020195;28;20033;-73
2020/12/04 10:51:20;;;;;;;14.82;11.80;;;5.10;89.70;;;;;;5037654;28;20044;-73
2020/12/04 10:53:46;;;;;;;13.52;10.70;;;5.20;88.50;;;;;;5037579;28;20373;-73
2020/12/04 10:56:11;;;;;;;12.82;10.20;;;5.20;89.60;;;;;;5037578;28;20032;-73
2020/12/04 10:58:37;;;;;;;13.77;11.38;;;5.20;88.60;;;;;;5037577;28;20017;-73
2020/12/04 11:01:03;;;;;;;13.77;11.20;;;5.20;88.40;;;;;;5037462;28;20425;-73
2020/12/04 11:05:57;;;;;;;14.43;11.95;;;5.10;87.90;;;;;;5037442;28;20025;-73
2020/12/04 11:08:23;;;;;;;22.75;15.95;;;5.10;89.60;;;;;;5037297;28;20432;-73
2020/12/04 11:10:48;;;;;;;22.17;17.33;;;5.00;90.90;;;;;;5037337;28;20318;-73
2020/12/04 11:13:14;;;;;;;25.70;17.90;;;5.00;91.30;;;;;;5037252;28;20033;-73
2020/12/04 11:15:40;;;;;;;20.52;16.35;;;5.00;91.60;;;;;;5037359;28;20056;-73
2020/12/04 11:18:06;;;;;;;20.38;15.88;;;5.00;91.70;;;;;;5050025;28;20322;-73
2020/12/04 11:20:31;;;;;;;18.77;14.15;;;5.00;90.60;;;;;;5057003;28;20029;-73
2020/12/04 11:22:57;;;;;;;18.73;15.02;;;5.00;90.40;;;;;;5056996;28;20017;-73
2020/12/04 11:25:23;;;;;;;17.23;14.35;;;5.00;90.20;;;;;;5056980;28;20027;-73
2020/12/04 11:27:50;;;;;;;17.50;13.88;;;5.00;90.20;;;;;;5056914;28;20029;-73
2020/12/04 11:30:18;;;;;;;17.70;14.18;;;5.00;91.60;;;;;;5056983;28;20322;-73
2020/12/04 11:32:45;;;;;;;17.88;14.77;;;4.90;92.10;;;;;;5056891;28;20413;-73
2020/12/04 11:35:11;;;;;;;15.90;13.82;;;4.90;92.40;;;;;;5056952;28;20028;-73
2020/12/04 11:37:39;;;;;;;16.05;13.30;;;5.00;92.70;;;;;;5056850;28;20452;-73
2020/12/04 11:40:07;;;;;;;17.08;13.48;;;5.00;91.90;;;;;;5056754;28;20075;-73
2020/12/04 11:42:33;;;;;;;15.05;11.98;;;5.00;92.00;;;;;;5056778;28;20025;-73
2020/12/04 11:44:59;;;;;;;15.45;12.60;;;5.00;92.50;;;;;;5056601;28;20367;-73
2020/12/04 11:47:26;;;;;;;13.88;10.75;;;5.10;92.40;;;;;;5056678;28;20025;-73
2020/12/04 11:49:52;;;;;;;7.78;6.78;;;5.10;92.50;;;;;;5056703;28;20029;-73
2020/12/04 11:52:18;;;;;;;7.60;6.07;;;5.10;91.20;;;;;;5056620;28;20036;-73
2020/12/04 11:54:45;;;;;;;4.70;3.25;;;5.10;90.60;;;;;;5056510;28;20356;-73
2020/12/04 11:57:10;;;;;;;3.03;1.60;;;5.10;89.50;;;;;;5056637;28;20035;-73
2020/12/04 11:59:37;;;;;;;4.18;1.40;;;5.10;87.20;;;;;;5056542;28;20405;-73
2020/12/04 12:02:03;;;;;;;2.05;1.60;;;5.10;86.30;;;;;;5056806;28;20104;-73
2020/12/04 12:04:28;;;;;;;1.45;1.20;;;5.10;87.20;;;;;;5056492;28;20044;-73
2020/12/04 12:06:54;;;;;;;2.13;1.23;;;5.10;85.50;;;;;;5056497;28;20056;-73
2020/12/04 12:09:20;;;;;;;1.85;1.50;;;5.10;83.60;;;;;;5056491;28;20031;-73
2020/12/04 12:11:46;;;;;;;1.80;1.27;;;5.10;86.20;;;;;;5056504;28;20033;-73
2020/12/04 12:14:11;;;;;;;1.92;1.42;;;5.20;85.10;;;;;;5056714;28;20036;-73
2020/12/04 12:16:37;;;;;;;1.90;1.40;;;5.20;85.80;;;;;;5059376;28;20041;-73
2020/12/04 12:19:03;;;;;;;1.73;1.27;;;5.20;86.80;;;;;;5059425;28;20041;-73
2020/12/04 12:21:29;;;;;;;2.45;1.45;;;5.20;84.00;;;;;;5060477;28;20029;-73
2020/12/04 12:23:55;;;;;;;9.38;7.47;;;5.30;86.70;;;;;;5060342;28;20021;-73
2020/12/04 12:26:20;;;;;;;11.13;9.48;;;5.10;89.10;;;;;;5059327;28;20075;-73
2020/12/04 12:28:46;;;;;;;19.30;15.15;;;5.10;90.20;;;;;;5060334;28;20048;-73
2020/12/04 12:31:13;;;;;;;15.32;12.80;;;4.90;91.00;;;;;;5060565;28;20020;-73
2020/12/04 12:33:39;;;;;;;12.95;11.15;;;4.80;92.20;;;;;;5060189;28;20067;-73
2020/12/04 12:36:05;;;;;;;10.52;9.35;;;4.70;92.30;;;;;;5060161;28;20040;-73
2020/12/04 12:38:30;;;;;;;9.35;6.88;;;4.70;92.50;;;;;;5060086;28;20317;-73
2020/12/04 12:40:57;;;;;;;7.00;5.78;;;4.70;91.50;;;;;;5060326;28;20029;-73
2020/12/04 12:43:22;;;;;;;7.22;5.38;;;4.80;90.80;;;;;;5059924;28;20025;-73
2020/12/04 12:45:48;;;;;;;8.85;5.85;;;4.90;90.80;;;;;;5059003;28;20324;-73
2020/12/04 12:48:13;;;;;;;3.55;2.70;;;4.90;91.10;;;;;;5042297;28;20058;-73
2020/12/04 12:50:39;;;;;;;2.22;1.90;;;4.90;89.70;;;;;;5059959;28;20041;-73
2020/12/04 12:53:05;;;;;;;2.30;1.95;;;5.00;89.20;;;;;;5059863;28;20340;-73